Time;durP1;ratioP1;P1;durP2;ratioP2;P2;SDS_P1;SDS_P2;PMS_P1;PMS_P2;Temp;Humidity;BMP_temperature;BMP_pressure;BME280_temperature;BME280_humidity;BME280_pressure;Samples;Min_cycle;Max_cycle;Signal;HPM_P1;HPM_P2
2022/04/10 00:00:53;;;;;;;13.63;7.80;;;3.00;99.90;;;;;;5057880;28;20050;-75
2022/04/10 00:03:22;;;;;;;13.25;7.93;;;3.10;99.90;;;;;;5056718;28;20045;-75
2022/04/10 00:05:50;;;;;;;14.93;8.40;;;3.10;99.90;;;;;;5064854;28;20049;-75
2022/04/10 00:08:18;;;;;;;14.50;8.70;;;3.10;99.90;;;;;;5063508;28;20049;-76
2022/04/10 00:10:47;;;;;;;16.27;9.20;;;3.10;99.90;;;;;;5045472;28;20488;-76
2022/04/10 00:13:15;;;;;;;14.70;8.55;;;3.10;99.90;;;;;;5062697;28;20051;-74
2022/04/10 00:15:42;;;;;;;15.85;8.57;;;3.10;99.90;;;;;;5047413;28;20130;-76
2022/04/10 00:18:10;;;;;;;18.65;10.10;;;3.20;99.90;;;;;;5069134;28;20460;-75
2022/04/10 00:20:38;;;;;;;15.52;9.05;;;3.20;99.90;;;;;;5062948;28;20429;-76
2022/04/10 00:23:05;;;;;;;14.88;8.95;;;3.20;99.90;;;;;;5062590;28;20045;-75
2022/04/10 00:25:33;;;;;;;16.75;9.30;;;3.20;99.90;;;;;;5057107;28;20514;-75
2022/04/10 00:28:02;;;;;;;17.33;9.85;;;3.10;99.90;;;;;;5064893;28;20103;-75
2022/04/10 00:30:32;;;;;;;17.92;10.15;;;3.20;99.90;;;;;;5043640;28;20160;-74
2022/04/10 00:33:00;;;;;;;14.50;9.30;;;3.20;99.90;;;;;;5040347;28;20052;-75
2022/04/10 00:35:29;;;;;;;18.90;10.65;;;3.30;99.90;;;;;;5044124;28;20044;-74
2022/04/10 00:37:57;;;;;;;19.27;10.57;;;3.30;99.90;;;;;;5047016;28;20059;-75
2022/04/10 00:40:24;;;;;;;17.92;10.60;;;3.20;99.90;;;;;;5039206;28;20047;-75
2022/04/10 00:42:52;;;;;;;18.90;10.68;;;3.20;99.90;;;;;;5056787;28;20131;-76
2022/04/10 00:45:21;;;;;;;16.83;9.65;;;3.20;99.90;;;;;;5038567;28;20144;-76
2022/04/10 00:47:48;;;;;;;17.70;9.68;;;3.20;99.90;;;;;;5056644;28;20045;-76
2022/04/10 00:50:18;;;;;;;17.50;9.93;;;3.30;99.90;;;;;;5038844;28;20554;-76
2022/04/10 00:52:47;;;;;;;16.05;9.98;;;3.40;99.90;;;;;;5038679;28;20068;-75
2022/04/10 00:55:16;;;;;;;18.30;10.73;;;3.40;99.90;;;;;;5038960;28;20133;-75
2022/04/10 00:57:45;;;;;;;15.15;9.48;;;3.40;99.90;;;;;;5038310;28;20080;-75
2022/04/10 01:00:15;;;;;;;14.77;9.05;;;3.50;99.90;;;;;;5047708;28;20052;-75
2022/04/10 01:02:44;;;;;;;14.65;9.73;;;3.40;99.90;;;;;;5072276;28;20489;-75
2022/04/10 01:05:12;;;;;;;18.35;11.20;;;3.50;99.90;;;;;;5050946;28;20067;-75
2022/04/10 01:07:41;;;;;;;18.75;12.18;;;3.50;99.90;;;;;;5043185;28;20045;-75
2022/04/10 01:10:09;;;;;;;22.90;13.52;;;3.50;99.90;;;;;;5038200;28;20511;-75
2022/04/10 01:12:37;;;;;;;22.02;12.52;;;3.50;99.90;;;;;;5019803;28;20136;-76
2022/04/10 01:15:13;;;;;;;21.38;12.63;;;3.50;99.90;;;;;;5019745;28;20041;-76
2022/04/10 01:17:47;;;;;;;22.27;13.55;;;3.50;99.90;;;;;;5018955;28;20079;-75
2022/04/10 01:20:16;;;;;;;24.50;14.43;;;3.50;99.90;;;;;;5032366;28;20407;-74
2022/04/10 01:22:49;;;;;;;23.23;13.95;;;3.50;99.90;;;;;;5057105;28;20049;-75
2022/04/10 01:25:16;;;;;;;26.30;15.30;;;3.50;99.90;;;;;;5040093;28;20060;-75
2022/04/10 01:27:45;;;;;;;24.83;14.10;;;3.50;99.90;;;;;;5041212;28;20147;-75
2022/04/10 01:30:15;;;;;;;22.52;13.30;;;3.50;99.90;;;;;;5042033;28;20048;-74
2022/04/10 01:32:45;;;;;;;21.88;12.95;;;3.40;99.90;;;;;;5041344;28;20045;-74
2022/04/10 01:35:13;;;;;;;25.27;13.07;;;3.40;99.90;;;;;;5038001;28;20080;-76
2022/04/10 01:37:41;;;;;;;20.80;11.98;;;3.40;99.90;;;;;;5055349;28;20056;-76
2022/04/10 01:40:15;;;;;;;22.63;13.30;;;3.40;99.90;;;;;;5037699;28;20053;-76
2022/04/10 01:42:43;;;;;;;25.92;14.40;;;3.40;99.90;;;;;;5037559;28;20520;-76
2022/04/10 01:45:11;;;;;;;25.70;13.98;;;3.50;99.90;;;;;;5037495;28;20045;-75
2022/04/10 01:47:39;;;;;;;23.30;13.20;;;3.50;99.90;;;;;;5037649;28;20076;-74
2022/04/10 01:50:08;;;;;;;23.38;11.82;;;3.40;99.90;;;;;;5036772;28;20515;-75
2022/04/10 01:52:36;;;;;;;22.42;11.50;;;3.40;99.90;;;;;;5037379;28;20163;-76
2022/04/10 01:55:04;;;;;;;21.75;11.75;;;3.40;99.90;;;;;;5054887;28;20041;-77
2022/04/10 01:57:33;;;;;;;22.15;12.27;;;3.40;99.90;;;;;;5037594;28;20127;-76
2022/04/10 02:00:01;;;;;;;25.13;12.57;;;3.40;99.90;;;;;;5036845;28;20512;-75
2022/04/10 02:02:29;;;;;;;25.83;12.85;;;3.40;99.90;;;;;;5054555;28;20048;-77
2022/04/10 02:04:57;;;;;;;29.67;13.60;;;3.50;99.90;;;;;;5036528;28;20481;-76
2022/04/10 02:07:24;;;;;;;29.48;15.65;;;3.60;99.90;;;;;;5036750;28;20051;-76
2022/04/10 02:09:52;;;;;;;26.15;13.60;;;3.60;99.90;;;;;;5036152;28;20049;-76
2022/04/10 02:12:19;;;;;;;19.45;11.05;;;3.70;99.90;;;;;;5037242;28;20472;-76
2022/04/10 02:14:48;;;;;;;11.02;6.32;;;3.70;99.90;;;;;;5036573;28;20446;-76
2022/04/10 02:17:17;;;;;;;11.35;6.20;;;3.70;99.90;;;;;;5036778;28;20041;-75
2022/04/10 02:19:44;;;;;;;12.20;6.75;;;3.70;99.90;;;;;;5036736;28;20045;-76
2022/04/10 02:22:11;;;;;;;8.65;5.05;;;3.80;99.90;;;;;;5036846;28;20051;-78
2022/04/10 02:24:39;;;;;;;10.88;6.00;;;3.80;99.90;;;;;;5036951;28;20054;-75
2022/04/10 02:27:07;;;;;;;12.10;6.45;;;3.80;99.90;;;;;;5036513;28;20052;-74
2022/04/10 02:29:35;;;;;;;11.10;7.22;;;3.80;99.90;;;;;;5036427;28;20381;-77
2022/04/10 02:32:04;;;;;;;13.73;8.07;;;3.80;99.90;;;;;;5039598;28;20048;-75
2022/04/10 02:34:32;;;;;;;13.40;8.32;;;3.90;99.90;;;;;;5056484;28;20037;-76
2022/04/10 02:36:59;;;;;;;16.35;9.55;;;3.80;99.90;;;;;;5049446;28;20056;-76
2022/04/10 02:39:27;;;;;;;16.40;10.43;;;3.70;99.90;;;;;;5053439;28;20051;-75
2022/04/10 02:41:55;;;;;;;18.15;9.82;;;3.60;99.90;;;;;;5051794;28;20152;-76
2022/04/10 02:44:22;;;;;;;18.00;10.65;;;3.60;99.90;;;;;;5051790;28;20051;-76
2022/04/10 02:46:49;;;;;;;19.02;9.93;;;3.60;99.90;;;;;;5061603;28;20083;-76
2022/04/10 02:49:18;;;;;;;19.98;9.98;;;3.50;99.90;;;;;;5053981;28;20128;-76
2022/04/10 02:51:49;;;;;;;19.70;11.02;;;3.50;99.90;;;;;;5035857;28;20103;-76
2022/04/10 02:54:17;;;;;;;22.38;12.20;;;3.50;99.90;;;;;;5038841;28;20073;-77
2022/04/10 02:56:45;;;;;;;20.30;12.18;;;3.60;99.90;;;;;;5044150;28;20063;-75
2022/04/10 02:59:12;;;;;;;19.40;11.57;;;3.60;99.90;;;;;;5039476;28;20063;-77
2022/04/10 03:01:40;;;;;;;20.33;11.65;;;3.60;99.90;;;;;;5036178;28;20049;-75
2022/04/10 03:04:08;;;;;;;19.40;11.25;;;3.70;99.90;;;;;;5036000;28;20500;-76
2022/04/10 03:06:37;;;;;;;16.90;10.45;;;3.60;99.90;;;;;;5035441;28;20048;-76
2022/04/10 03:09:04;;;;;;;18.17;10.75;;;3.60;99.90;;;;;;5032306;28;20060;-75
2022/04/10 03:11:32;;;;;;;14.43;9.63;;;3.70;99.90;;;;;;5032512;28;20042;-76
2022/04/10 03:14:00;;;;;;;17.85;10.52;;;3.70;99.90;;;;;;5032318;28;20128;-76
2022/04/10 03:16:28;;;;;;;16.58;9.98;;;3.70;99.90;;;;;;5032709;28;20056;-76
2022/04/10 03:18:56;;;;;;;14.70;9.68;;;3.80;99.90;;;;;;5032475;28;20072;-76
2022/04/10 03:21:25;;;;;;;16.75;11.10;;;3.80;99.90;;;;;;5031594;28;20045;-75
2022/04/10 03:23:54;;;;;;;17.15;10.20;;;3.80;99.90;;;;;;5032048;28;20056;-77
2022/04/10 03:26:22;;;;;;;15.73;9.90;;;3.90;99.90;;;;;;5037355;28;20046;-76
2022/04/10 03:28:50;;;;;;;15.15;9.48;;;3.90;99.90;;;;;;5032240;28;20049;-76
2022/04/10 03:31:17;;;;;;;16.48;9.95;;;3.80;99.90;;;;;;5032269;28;20050;-76
2022/04/10 03:33:45;;;;;;;17.35;10.60;;;3.80;99.90;;;;;;5031979;28;20043;-75
2022/04/10 03:36:13;;;;;;;19.08;11.57;;;3.80;99.90;;;;;;5032051;28;20377;-76
2022/04/10 03:38:41;;;;;;;19.20;12.52;;;3.80;99.90;;;;;;5032365;28;20041;-76
2022/04/10 03:41:10;;;;;;;18.55;12.02;;;3.80;99.90;;;;;;5032459;28;20041;-77
2022/04/10 03:43:38;;;;;;;19.98;12.75;;;3.80;99.90;;;;;;5032194;28;20052;-75
2022/04/10 03:46:06;;;;;;;17.33;12.02;;;3.80;99.90;;;;;;5035545;28;20038;-76
2022/04/10 03:48:34;;;;;;;19.02;11.23;;;3.80;99.90;;;;;;5039093;28;20045;-75
2022/04/10 03:51:02;;;;;;;20.60;12.15;;;3.90;99.90;;;;;;5035857;28;20045;-76
2022/04/10 03:53:29;;;;;;;18.90;11.55;;;3.80;99.90;;;;;;5042207;28;20396;-77
2022/04/10 03:55:57;;;;;;;23.15;12.73;;;3.70;99.90;;;;;;5031964;28;20440;-76
2022/04/10 03:58:26;;;;;;;21.48;11.73;;;3.70;99.90;;;;;;5042704;28;20107;-75
2022/04/10 04:00:54;;;;;;;21.17;11.10;;;3.60;99.90;;;;;;5051866;28;20049;-76
2022/04/10 04:03:21;;;;;;;22.60;12.10;;;3.60;99.90;;;;;;5051659;28;20103;-76
2022/04/10 04:05:49;;;;;;;21.15;12.43;;;3.60;99.90;;;;;;5032941;28;20481;-76
2022/04/10 04:08:18;;;;;;;25.42;14.73;;;3.60;99.90;;;;;;5042593;28;20045;-75
2022/04/10 04:10:46;;;;;;;39.10;22.02;;;3.70;99.90;;;;;;5053046;28;20041;-76
2022/04/10 04:13:14;;;;;;;72.22;36.03;;;3.70;99.90;;;;;;5050233;28;20053;-76
2022/04/10 04:15:43;;;;;;;114.72;47.80;;;3.80;99.90;;;;;;5054957;28;20053;-76
2022/04/10 04:18:11;;;;;;;85.85;39.30;;;3.80;99.90;;;;;;5054723;28;20133;-76
2022/04/10 04:20:40;;;;;;;35.72;18.60;;;3.80;99.90;;;;;;5034408;28;20091;-75
2022/04/10 04:23:08;;;;;;;26.55;14.25;;;3.90;99.90;;;;;;5052641;28;20415;-76
2022/04/10 04:25:35;;;;;;;27.08;14.40;;;3.90;99.90;;;;;;5034696;28;20037;-75
2022/04/10 04:28:05;;;;;;;24.23;14.73;;;3.90;99.90;;;;;;5034754;28;20094;-76
2022/04/10 04:30:32;;;;;;;20.27;13.93;;;4.00;99.90;;;;;;5034805;28;20055;-76
2022/04/10 04:33:05;;;;;;;22.70;13.57;;;4.00;99.90;;;;;;5036866;28;20522;-75
2022/04/10 04:35:34;;;;;;;22.77;15.50;;;4.00;99.90;;;;;;5039962;28;20045;-77
2022/04/10 04:38:03;;;;;;;26.10;17.30;;;4.00;99.90;;;;;;5042260;28;20116;-76
2022/04/10 04:40:32;;;;;;;26.90;16.42;;;4.00;99.90;;;;;;5045061;28;20099;-77
2022/04/10 04:42:59;;;;;;;28.35;16.48;;;4.00;99.90;;;;;;5039783;28;20152;-77
2022/04/10 04:45:30;;;;;;;26.70;16.13;;;4.00;99.90;;;;;;5039119;28;20373;-77
2022/04/10 04:48:06;;;;;;;24.90;17.52;;;4.00;99.90;;;;;;5050710;28;20041;-76
2022/04/10 04:50:35;;;;;;;24.02;16.05;;;3.90;99.90;;;;;;5052336;28;20123;-77
2022/04/10 04:53:04;;;;;;;26.88;16.20;;;3.90;99.90;;;;;;5021184;28;20056;-76
2022/04/10 04:55:33;;;;;;;27.88;16.58;;;3.90;99.90;;;;;;5041473;28;20043;-76
2022/04/10 04:58:01;;;;;;;23.35;15.63;;;4.00;99.90;;;;;;5057500;28;20047;-77
2022/04/10 05:00:30;;;;;;;20.60;14.45;;;4.00;99.90;;;;;;5049331;28;20048;-75
2022/04/10 05:03:01;;;;;;;21.15;13.57;;;4.00;99.90;;;;;;5037859;28;20051;-77
2022/04/10 05:05:31;;;;;;;21.02;12.27;;;3.90;99.90;;;;;;5055091;28;20049;-77
2022/04/10 05:08:07;;;;;;;21.17;13.07;;;4.00;99.90;;;;;;5035060;28;20055;-82
2022/04/10 05:10:35;;;;;;;18.58;12.43;;;4.00;99.90;;;;;;5068945;28;20056;-77
2022/04/10 05:13:08;;;;;;;19.30;12.13;;;4.00;99.90;;;;;;5073926;28;20576;-78
2022/04/10 05:15:36;;;;;;;20.13;11.23;;;4.10;99.90;;;;;;5074791;28;20043;-77
2022/04/10 05:18:03;;;;;;;17.00;11.35;;;4.20;99.90;;;;;;5091216;28;20047;-80
2022/04/10 05:20:34;;;;;;;14.25;9.73;;;4.20;99.90;;;;;;5057884;28;20041;-81
2022/04/10 05:23:11;;;;;;;14.27;9.93;;;4.10;99.90;;;;;;5063617;28;20086;-81
2022/04/10 05:25:42;;;;;;;15.02;9.23;;;4.00;99.90;;;;;;5071521;28;20158;-81
2022/04/10 05:28:11;;;;;;;15.75;9.93;;;4.00;99.90;;;;;;5046918;28;20416;-80
2022/04/10 05:30:39;;;;;;;15.20;10.20;;;4.10;99.90;;;;;;5044356;28;20045;-81
2022/04/10 05:33:09;;;;;;;16.80;12.07;;;4.20;99.90;;;;;;5047648;28;20047;-79
2022/04/10 05:35:39;;;;;;;15.65;11.23;;;4.20;99.90;;;;;;5048613;28;20493;-81
2022/04/10 05:38:08;;;;;;;16.13;10.90;;;4.30;99.90;;;;;;5048771;28;20453;-79
2022/04/10 05:40:37;;;;;;;24.17;15.98;;;4.30;99.90;;;;;;5050166;28;20056;-79
2022/04/10 05:43:06;;;;;;;25.30;17.73;;;4.30;99.90;;;;;;5052538;28;20048;-79
2022/04/10 05:45:33;;;;;;;27.40;18.85;;;4.40;99.90;;;;;;5053457;28;20037;-77
2022/04/10 05:48:02;;;;;;;32.63;21.23;;;4.40;99.90;;;;;;5030405;28;20056;-76
2022/04/10 05:50:32;;;;;;;33.50;22.40;;;4.50;99.90;;;;;;5019159;28;20125;-77
2022/04/10 05:53:04;;;;;;;32.15;22.15;;;4.60;99.90;;;;;;5020087;28;20075;-78
2022/04/10 05:55:35;;;;;;;34.10;21.77;;;4.60;99.90;;;;;;5017727;28;20045;-78
2022/04/10 05:58:08;;;;;;;28.88;18.98;;;4.70;99.90;;;;;;5017888;28;20050;-76
2022/04/10 06:00:37;;;;;;;28.88;20.13;;;4.70;99.90;;;;;;5041149;28;20049;-76
2022/04/10 06:03:12;;;;;;;31.58;20.85;;;4.60;99.90;;;;;;5039894;28;20072;-77
2022/04/10 06:05:43;;;;;;;31.50;20.38;;;4.70;99.90;;;;;;5037614;28;20037;-77
2022/04/10 06:08:19;;;;;;;26.90;19.03;;;4.80;99.90;;;;;;5034919;28;20523;-78
2022/04/10 06:10:47;;;;;;;27.85;18.13;;;4.70;99.90;;;;;;5017720;28;20524;-76
2022/04/10 06:13:16;;;;;;;24.85;16.50;;;4.70;99.90;;;;;;5025241;28;20059;-76
2022/04/10 06:15:52;;;;;;;21.08;14.98;;;4.70;99.90;;;;;;5037146;28;20068;-77
2022/04/10 06:18:21;;;;;;;26.27;17.88;;;4.80;99.90;;;;;;5049042;28;20052;-76
2022/04/10 06:20:49;;;;;;;25.95;17.33;;;4.80;99.90;;;;;;5052161;28;20044;-77
2022/04/10 06:23:18;;;;;;;26.80;17.35;;;4.80;99.90;;;;;;5054040;28;20447;-77
2022/04/10 06:25:51;;;;;;;22.15;14.93;;;5.10;99.90;;;;;;5047503;28;20045;-77
2022/04/10 06:28:19;;;;;;;22.30;15.20;;;5.20;99.90;;;;;;5046466;28;20059;-77
2022/04/10 06:30:49;;;;;;;21.35;14.65;;;5.30;99.90;;;;;;5057291;28;20037;-76
2022/04/10 06:33:21;;;;;;;24.40;14.68;;;5.30;99.90;;;;;;5044409;28;20045;-76
2022/04/10 06:35:53;;;;;;;31.77;17.73;;;5.20;99.90;;;;;;5044668;28;20061;-76
2022/04/10 06:38:21;;;;;;;39.70;20.67;;;5.20;99.90;;;;;;5052400;28;20049;-77
2022/04/10 06:40:56;;;;;;;38.72;24.88;;;5.10;99.90;;;;;;5063912;28;20044;-75
2022/04/10 06:43:26;;;;;;;48.13;30.20;;;5.20;99.90;;;;;;5023497;28;20042;-77
2022/04/10 06:46:10;;;;;;;51.92;29.83;;;5.30;99.90;;;;;;5026855;28;20065;-76
2022/04/10 06:48:50;;;;;;;53.28;30.65;;;5.40;99.90;;;;;;5018338;28;20501;-76
2022/04/10 06:51:17;;;;;;;56.15;31.83;;;5.60;99.90;;;;;;5032146;28;20052;-76
2022/04/10 06:53:46;;;;;;;56.53;29.35;;;5.70;99.90;;;;;;5054782;28;20065;-76
2022/04/10 06:56:16;;;;;;;56.63;31.00;;;5.90;99.90;;;;;;5016965;28;20128;-76
2022/04/10 06:58:43;;;;;;;64.68;33.10;;;5.90;99.90;;;;;;5032654;28;20144;-77
2022/04/10 07:01:11;;;;;;;54.63;28.15;;;5.80;99.90;;;;;;5038970;28;20049;-77
2022/04/10 07:03:39;;;;;;;64.47;30.80;;;5.90;99.90;;;;;;5036781;28;20090;-77
2022/04/10 07:06:11;;;;;;;60.33;29.80;;;5.90;99.90;;;;;;5036500;28;20040;-77
2022/04/10 07:08:38;;;;;;;51.50;28.38;;;5.90;99.90;;;;;;5036560;28;20515;-77
2022/04/10 07:11:07;;;;;;;52.88;27.05;;;6.00;99.90;;;;;;5037392;28;20441;-78
2022/04/10 07:13:37;;;;;;;51.00;26.20;;;6.00;99.90;;;;;;5020989;28;20132;-76
2022/04/10 07:16:06;;;;;;;47.80;25.52;;;6.00;99.90;;;;;;5033590;28;20116;-78
2022/04/10 07:18:34;;;;;;;48.65;26.15;;;6.20;99.90;;;;;;5036435;28;20051;-77
2022/04/10 07:21:07;;;;;;;48.65;27.92;;;6.30;99.90;;;;;;5036773;28;20060;-77
2022/04/10 07:23:42;;;;;;;50.35;28.67;;;6.40;99.90;;;;;;5037100;28;20079;-76
2022/04/10 07:26:14;;;;;;;46.60;27.95;;;6.60;99.90;;;;;;5037132;28;20144;-75
2022/04/10 07:28:44;;;;;;;43.17;24.83;;;6.40;99.90;;;;;;5036676;28;20045;-76
2022/04/10 07:31:12;;;;;;;45.88;25.17;;;6.50;99.90;;;;;;5035672;28;20140;-76
2022/04/10 07:33:41;;;;;;;40.63;24.63;;;6.50;99.90;;;;;;5038407;28;20040;-76
2022/04/10 07:36:29;;;;;;;45.67;25.63;;;6.50;99.90;;;;;;5055652;28;20128;-78
2022/04/10 07:38:57;;;;;;;41.67;26.63;;;6.60;99.90;;;;;;5037569;28;20532;-78
2022/04/10 07:41:32;;;;;;;;;;;6.70;99.90;;;;;;5029858;28;20049;-78
2022/04/10 07:44:03;;;;;;;34.60;23.67;;;6.70;99.90;;;;;;5054425;28;19919;-85
2022/04/10 07:49:19;;;;;;;36.00;23.52;;;6.80;99.90;;;;;;5025126;28;20484;-78
2022/04/10 07:51:54;;;;;;;;;;;6.80;99.90;;;;;;5046633;28;20045;-78
2022/04/10 07:54:33;;;;;;;33.15;20.77;;;6.80;99.90;;;;;;5029239;28;20269;-79
2022/04/10 07:57:02;;;;;;;28.52;19.35;;;6.90;99.90;;;;;;5035932;28;20053;-75
2022/04/10 07:59:34;;;;;;;31.15;20.02;;;7.20;99.90;;;;;;5035195;28;20412;-74
2022/04/10 08:02:02;;;;;;;26.30;18.17;;;7.40;99.90;;;;;;5035197;28;20052;-75
2022/04/10 08:04:33;;;;;;;24.63;16.90;;;7.60;99.90;;;;;;5035255;28;20049;-75
2022/04/10 08:07:36;;;;;;;25.73;18.55;;;7.70;99.90;;;;;;5033602;28;20049;-75
2022/04/10 08:10:04;;;;;;;26.65;18.42;;;7.90;99.90;;;;;;5036791;28;20482;-75
2022/04/10 08:12:31;;;;;;;28.98;18.85;;;8.00;99.90;;;;;;5037650;28;20484;-76
2022/04/10 08:15:00;;;;;;;25.20;17.10;;;8.10;99.90;;;;;;5057562;28;20132;-76
2022/04/10 08:17:27;;;;;;;26.02;18.50;;;7.90;99.90;;;;;;5059597;28;20040;-75
2022/04/10 08:19:55;;;;;;;25.27;17.88;;;7.80;99.90;;;;;;5067743;28;20048;-75
2022/04/10 08:22:25;;;;;;;27.90;20.52;;;7.70;99.90;;;;;;5067913;28;20563;-76
2022/04/10 08:24:52;;;;;;;25.58;18.50;;;7.60;99.90;;;;;;5069304;28;20056;-75
2022/04/10 08:27:20;;;;;;;25.63;18.65;;;7.60;99.90;;;;;;5066151;28;20040;-76
2022/04/10 08:29:48;;;;;;;27.60;18.20;;;7.40;99.90;;;;;;5050745;28;20049;-75
2022/04/10 08:32:17;;;;;;;22.20;16.17;;;7.50;99.90;;;;;;5073822;28;20045;-76
2022/04/10 08:34:45;;;;;;;23.92;16.73;;;7.60;99.90;;;;;;5068433;28;20039;-75
2022/04/10 08:37:12;;;;;;;23.75;16.75;;;7.40;99.90;;;;;;5039471;28;20045;-75
2022/04/10 08:39:40;;;;;;;24.27;16.75;;;7.40;99.90;;;;;;5056311;28;20043;-75
2022/04/10 08:42:08;;;;;;;26.45;17.45;;;7.20;99.90;;;;;;5055349;28;20045;-75
2022/04/10 08:44:36;;;;;;;24.55;16.92;;;7.10;99.90;;;;;;5054691;28;20040;-74
2022/04/10 08:47:04;;;;;;;22.83;17.17;;;7.10;99.90;;;;;;5059976;28;20041;-75
2022/04/10 08:49:35;;;;;;;25.83;18.75;;;7.00;99.90;;;;;;5057120;28;20044;-75
2022/04/10 08:52:02;;;;;;;26.85;19.30;;;6.90;99.90;;;;;;5067411;28;20045;-75
2022/04/10 08:54:30;;;;;;;26.75;18.58;;;6.80;99.90;;;;;;5037655;28;20060;-75
2022/04/10 08:56:57;;;;;;;29.40;19.10;;;6.80;99.90;;;;;;5031653;28;20149;-74
2022/04/10 08:59:25;;;;;;;28.15;19.00;;;6.90;99.90;;;;;;5042589;28;20051;-75
2022/04/10 09:01:56;;;;;;;27.45;18.70;;;6.80;99.90;;;;;;5061750;28;20033;-74
2022/04/10 09:04:25;;;;;;;27.58;17.85;;;6.90;99.90;;;;;;5047308;28;20148;-74
2022/04/10 09:07:02;;;;;;;29.70;19.90;;;6.90;99.90;;;;;;5069023;28;20139;-75
2022/04/10 09:09:30;;;;;;;23.10;16.75;;;6.90;99.90;;;;;;5056876;28;20125;-75
2022/04/10 09:11:59;;;;;;;23.40;15.45;;;6.90;99.90;;;;;;5073742;28;20052;-74
2022/04/10 09:14:29;;;;;;;25.65;15.77;;;7.10;99.90;;;;;;5054765;28;20440;-75
2022/04/10 09:17:14;;;;;;;23.67;15.68;;;7.30;99.90;;;;;;5054968;28;20045;-74
2022/04/10 09:19:43;;;;;;;19.38;13.52;;;7.60;99.90;;;;;;5035973;28;20044;-74
2022/04/10 09:22:23;;;;;;;19.65;12.35;;;7.80;99.90;;;;;;5054454;28;20045;-73
2022/04/10 09:25:05;;;;;;;21.98;13.98;;;8.00;99.90;;;;;;5037359;28;20155;-74
2022/04/10 09:27:33;;;;;;;26.45;17.83;;;8.30;99.90;;;;;;5037345;28;20412;-73
2022/04/10 09:30:01;;;;;;;32.00;20.08;;;8.40;99.90;;;;;;5037226;28;20053;-74
2022/04/10 09:32:42;;;;;;;30.23;19.60;;;8.60;99.90;;;;;;5043574;28;20053;-75
2022/04/10 09:35:11;;;;;;;31.70;20.90;;;8.90;99.90;;;;;;5066902;28;20488;-74
2022/04/10 09:37:51;;;;;;;33.33;22.75;;;8.90;99.90;;;;;;5063785;28;20403;-74
2022/04/10 09:40:37;;;;;;;33.53;24.08;;;8.70;99.90;;;;;;5057990;28;20122;-75
2022/04/10 09:43:05;;;;;;;34.03;22.20;;;8.60;99.90;;;;;;5054122;28;20052;-75
2022/04/10 09:45:38;;;;;;;28.98;21.52;;;8.30;99.90;;;;;;5036650;28;20049;-75
2022/04/10 09:48:21;;;;;;;31.15;21.83;;;8.10;99.90;;;;;;5055643;28;20067;-74
2022/04/10 09:50:52;;;;;;;30.02;21.52;;;8.10;99.90;;;;;;5053785;28;20127;-76
2022/04/10 09:53:21;;;;;;;33.40;24.33;;;8.10;99.90;;;;;;5058704;28;20489;-75
2022/04/10 09:55:54;;;;;;;38.83;26.95;;;8.10;99.90;;;;;;5038872;28;20508;-74
2022/04/10 09:58:22;;;;;;;38.30;27.85;;;8.00;99.90;;;;;;5056274;28;20045;-74
2022/04/10 10:00:53;;;;;;;36.75;24.60;;;8.10;99.90;;;;;;5055605;28;20040;-76
2022/04/10 10:03:22;;;;;;;35.75;25.15;;;8.10;99.90;;;;;;5057765;28;20076;-73
2022/04/10 10:05:52;;;;;;;35.72;25.02;;;8.10;99.90;;;;;;5058114;28;20412;-74
2022/04/10 10:08:22;;;;;;;35.80;24.58;;;8.10;99.90;;;;;;5053461;28;20094;-74
2022/04/10 10:10:49;;;;;;;33.75;24.35;;;8.10;99.90;;;;;;5054674;28;20116;-74
2022/04/10 10:13:17;;;;;;;36.72;23.70;;;8.10;99.90;;;;;;5071180;28;20108;-74
2022/04/10 10:15:46;;;;;;;29.83;21.65;;;8.10;99.90;;;;;;5049345;28;20053;-75
2022/04/10 10:18:16;;;;;;;32.90;22.15;;;8.10;99.90;;;;;;5054822;28;20124;-73
2022/04/10 10:20:43;;;;;;;34.25;23.80;;;8.30;99.90;;;;;;5036795;28;20041;-74
2022/04/10 10:23:12;;;;;;;34.95;22.48;;;8.50;99.90;;;;;;5036564;28;20045;-73
2022/04/10 10:25:46;;;;;;;36.72;24.80;;;8.70;99.90;;;;;;5056057;28;20519;-74
2022/04/10 10:28:36;;;;;;;32.60;20.73;;;9.00;99.90;;;;;;5057720;28;20116;-75
2022/04/10 10:31:21;;;;;;;29.00;20.92;;;9.20;99.90;;;;;;5040898;28;20063;-74
2022/04/10 10:33:53;;;;;;;32.25;21.30;;;9.20;99.90;;;;;;5055998;28;20049;-74
2022/04/10 10:36:26;;;;;;;37.00;19.80;;;9.20;99.90;;;;;;5056698;28;20045;-73
2022/04/10 10:38:54;;;;;;;25.85;17.55;;;9.20;99.90;;;;;;5054789;28;20434;-75
2022/04/10 10:41:37;;;;;;;21.52;14.73;;;9.30;99.90;;;;;;5054363;28;20064;-73
2022/04/10 10:44:42;;;;;;;24.48;15.75;;;9.20;99.90;;;;;;5053940;28;20037;-73
2022/04/10 10:47:23;;;;;;;21.50;14.82;;;9.30;99.90;;;;;;5052187;28;20115;-74
2022/04/10 10:49:53;;;;;;;21.33;13.90;;;9.20;99.90;;;;;;5063642;28;20127;-74
2022/04/10 10:52:21;;;;;;;18.95;14.25;;;9.30;99.90;;;;;;5062179;28;20059;-75
2022/04/10 10:54:53;;;;;;;18.45;13.80;;;9.60;99.90;;;;;;5053788;28;20053;-74
2022/04/10 10:57:39;;;;;;;21.17;14.80;;;10.00;99.90;;;;;;5035502;28;20068;-73
2022/04/10 11:00:15;;;;;;;19.98;13.32;;;10.10;99.90;;;;;;5062404;28;20083;-74
2022/04/10 11:02:49;;;;;;;18.27;12.45;;;10.10;99.90;;;;;;5061084;28;20036;-75
2022/04/10 11:05:31;;;;;;;21.73;15.52;;;9.90;99.90;;;;;;5064839;28;20040;-74
2022/04/10 11:07:59;;;;;;;26.77;18.55;;;9.80;99.90;;;;;;5067406;28;20552;-74
2022/04/10 11:10:29;;;;;;;22.02;16.80;;;9.90;99.90;;;;;;5061578;28;20045;-75
2022/04/10 11:13:04;;;;;;;21.30;13.93;;;9.90;99.90;;;;;;5042765;28;20041;-75
2022/04/10 11:15:34;;;;;;;16.77;12.43;;;9.60;99.90;;;;;;5035562;28;20124;-74
2022/04/10 11:18:30;;;;;;;20.75;12.55;;;9.60;99.90;;;;;;5035881;28;20044;-74
2022/04/10 11:20:58;;;;;;;15.97;11.57;;;9.60;99.90;;;;;;5053070;28;20041;-74
2022/04/10 11:23:30;;;;;;;16.48;11.95;;;9.50;99.90;;;;;;5053201;28;20044;-74
2022/04/10 11:26:06;;;;;;;18.27;12.40;;;9.60;99.90;;;;;;5035341;28;20049;-75
2022/04/10 11:28:54;;;;;;;19.02;12.82;;;9.70;99.90;;;;;;5053485;28;20041;-74
2022/04/10 11:31:32;;;;;;;16.48;12.18;;;10.00;99.90;;;;;;5036200;28;20388;-75
2022/04/10 11:34:12;;;;;;;16.80;11.05;;;10.50;99.90;;;;;;5035659;28;20041;-74
2022/04/10 11:36:54;;;;;;;19.52;12.65;;;10.90;99.90;;;;;;5053976;28;20447;-75
2022/04/10 11:39:25;;;;;;;17.52;12.48;;;11.20;99.90;;;;;;5053168;28;20045;-74
2022/04/10 11:41:54;;;;;;;18.17;12.68;;;11.50;99.90;;;;;;5056021;28;20047;-75
2022/04/10 11:44:25;;;;;;;33.40;15.52;;;11.90;99.90;;;;;;5057630;28;20053;-76
2022/04/10 11:46:52;;;;;;;18.23;13.00;;;11.90;99.90;;;;;;5058636;28;20037;-75
2022/04/10 11:49:20;;;;;;;18.38;12.75;;;12.10;99.90;;;;;;5057754;28;20119;-75
2022/04/10 11:51:55;;;;;;;17.67;11.95;;;12.10;99.90;;;;;;5056873;28;20488;-75
2022/04/10 11:54:28;;;;;;;23.93;15.43;;;11.90;99.90;;;;;;5057164;28;20049;-75
2022/04/10 11:56:56;;;;;;;19.73;13.65;;;11.90;99.90;;;;;;5060790;28;20289;-74
2022/04/10 11:59:25;;;;;;;19.20;12.65;;;12.20;99.90;;;;;;5064197;28;20041;-74
2022/04/10 12:01:54;;;;;;;16.05;11.75;;;12.40;99.90;;;;;;5058063;28;20045;-76
2022/04/10 12:04:22;;;;;;;17.92;12.60;;;12.40;99.90;;;;;;5057055;28;20041;-75
2022/04/10 12:06:49;;;;;;;19.08;12.40;;;12.30;99.90;;;;;;5057059;28;20041;-75
2022/04/10 12:09:17;;;;;;;20.05;12.25;;;12.10;99.90;;;;;;5056757;28;20133;-75
2022/04/10 12:11:45;;;;;;;15.07;11.60;;;11.90;99.90;;;;;;5039220;28;20049;-75
2022/04/10 12:14:22;;;;;;;14.07;11.35;;;11.70;99.90;;;;;;5056240;28;20040;-74
2022/04/10 12:16:53;;;;;;;17.92;12.43;;;11.40;99.90;;;;;;5038695;28;20049;-74
2022/04/10 12:19:33;;;;;;;16.50;10.98;;;11.20;99.90;;;;;;5038742;28;20045;-75
2022/04/10 12:22:00;;;;;;;12.55;9.15;;;11.00;99.90;;;;;;5040345;28;20075;-75
2022/04/10 12:24:27;;;;;;;16.52;10.50;;;10.80;99.90;;;;;;5039502;28;20085;-74
2022/04/10 12:26:55;;;;;;;13.82;9.10;;;10.80;99.90;;;;;;5058064;28;20055;-74
2022/04/10 12:29:23;;;;;;;13.73;9.82;;;11.00;99.90;;;;;;5038278;28;20053;-75
2022/04/10 12:31:54;;;;;;;14.07;10.48;;;11.30;99.90;;;;;;5056377;28;20461;-75
2022/04/10 12:34:22;;;;;;;16.33;11.35;;;11.30;99.90;;;;;;5056295;28;20049;-75
2022/04/10 12:36:51;;;;;;;14.57;9.75;;;11.40;99.90;;;;;;5038191;28;20408;-74
2022/04/10 12:39:26;;;;;;;12.90;8.50;;;11.40;99.90;;;;;;5056267;28;20481;-75
2022/04/10 12:42:01;;;;;;;15.33;11.07;;;11.30;99.90;;;;;;5056601;28;20048;-74
2022/04/10 12:44:29;;;;;;;20.30;12.40;;;11.30;99.90;;;;;;5056484;28;20045;-74
2022/04/10 12:46:58;;;;;;;15.07;10.85;;;11.40;99.90;;;;;;5038674;28;20294;-75
2022/04/10 12:49:25;;;;;;;15.80;10.00;;;11.40;99.90;;;;;;5055937;28;20049;-75
2022/04/10 12:51:55;;;;;;;18.63;11.60;;;11.20;99.90;;;;;;5056079;28;20071;-75
2022/04/10 12:54:41;;;;;;;17.17;11.30;;;11.10;99.90;;;;;;5054547;28;20056;-74
2022/04/10 12:57:10;;;;;;;13.27;9.70;;;11.10;99.90;;;;;;5038381;28;20412;-75